Time;durP1;ratioP1;P1;durP2;ratioP2;P2;SDS_P1;SDS_P2;PMS_P1;PMS_P2;Temp;Humidity;BMP_temperature;BMP_pressure;BME280_temperature;BME280_humidity;BME280_pressure;Samples;Min_cycle;Max_cycle;Signal;HPM_P1;HPM_P2
2023/05/25 00:02:18;;;;;;;10.65;4.72;;;8.90;99.90;;;;;;6214434;23;20095;-47
2023/05/25 00:04:47;;;;;;;9.50;4.47;;;8.90;99.90;;;;;;6216144;23;20051;-48
2023/05/25 00:07:14;;;;;;;9.50;4.47;;;9.00;99.90;;;;;;6214604;23;20360;-48
2023/05/25 00:09:43;;;;;;;13.90;5.03;;;9.00;99.90;;;;;;6191988;23;20056;-51
2023/05/25 00:12:09;;;;;;;10.07;4.57;;;8.90;99.90;;;;;;6214365;23;20445;-48
2023/05/25 00:14:35;;;;;;;12.75;5.07;;;9.00;99.90;;;;;;6214794;23;20374;-49
2023/05/25 00:17:02;;;;;;;9.38;4.05;;;9.00;99.90;;;;;;6213486;23;20024;-48
2023/05/25 00:19:31;;;;;;;11.65;4.97;;;9.00;99.90;;;;;;6161250;23;20352;-50
2023/05/25 00:22:00;;;;;;;12.82;4.82;;;8.90;99.90;;;;;;6211756;23;20009;-48
2023/05/25 00:24:28;;;;;;;11.95;4.88;;;9.00;99.90;;;;;;6214110;23;20345;-52
2023/05/25 00:26:54;;;;;;;13.23;5.00;;;9.00;99.90;;;;;;6214136;23;20120;-49
2023/05/25 00:29:20;;;;;;;9.63;4.50;;;9.00;99.90;;;;;;6214454;23;20088;-47
2023/05/25 00:31:46;;;;;;;11.88;4.93;;;9.00;99.90;;;;;;6213018;23;20254;-52
2023/05/25 00:34:11;;;;;;;13.40;5.50;;;9.00;99.90;;;;;;6212898;23;20306;-51
2023/05/25 00:36:37;;;;;;;14.57;5.15;;;9.00;99.90;;;;;;6214030;23;20012;-48
2023/05/25 00:39:03;;;;;;;12.93;5.03;;;9.00;99.90;;;;;;6213935;23;20023;-48
2023/05/25 00:41:30;;;;;;;14.18;4.97;;;9.00;99.90;;;;;;6214218;23;20008;-50
2023/05/25 00:43:55;;;;;;;11.40;5.72;;;8.90;99.90;;;;;;6213603;23;20463;-48
2023/05/25 00:46:22;;;;;;;18.00;5.50;;;8.90;99.90;;;;;;6213335;23;20016;-49
2023/05/25 00:48:50;;;;;;;11.60;5.20;;;8.90;99.90;;;;;;6213934;23;20016;-48
2023/05/25 00:51:16;;;;;;;9.75;5.07;;;8.90;99.90;;;;;;6213899;23;20043;-48
2023/05/25 00:53:42;;;;;;;10.43;5.03;;;8.90;99.90;;;;;;6214325;23;20009;-48
2023/05/25 00:56:16;;;;;;;14.15;5.25;;;8.80;99.90;;;;;;6214306;23;20043;-48
2023/05/25 00:58:45;;;;;;;11.68;5.38;;;8.80;99.90;;;;;;6214211;23;20016;-49
2023/05/25 01:01:14;;;;;;;14.65;5.10;;;8.80;99.90;;;;;;6187699;23;20116;-48
2023/05/25 01:03:44;;;;;;;14.65;5.22;;;8.70;99.90;;;;;;6215164;23;20052;-48
2023/05/25 01:06:14;;;;;;;12.15;5.50;;;8.70;99.90;;;;;;6213944;23;20020;-49
2023/05/25 01:08:43;;;;;;;10.20;4.82;;;8.70;99.90;;;;;;6213836;23;20023;-47
2023/05/25 01:11:11;;;;;;;12.13;5.22;;;8.70;99.90;;;;;;6214698;23;20008;-49
2023/05/25 01:13:37;;;;;;;13.80;5.45;;;8.70;99.90;;;;;;6218137;23;20016;-51
2023/05/25 01:16:05;;;;;;;14.15;5.45;;;8.60;99.90;;;;;;6214130;23;20048;-49
2023/05/25 01:18:32;;;;;;;14.02;6.13;;;8.70;99.90;;;;;;6213324;23;20083;-48
2023/05/25 01:21:00;;;;;;;12.23;5.78;;;8.60;99.90;;;;;;6187609;23;20027;-50
2023/05/25 01:23:32;;;;;;;12.90;5.45;;;8.60;99.90;;;;;;6185408;23;20146;-47
2023/05/25 01:26:02;;;;;;;10.48;5.00;;;8.60;99.90;;;;;;6211735;23;20021;-48
2023/05/25 01:28:34;;;;;;;10.63;5.57;;;8.60;99.90;;;;;;6211554;23;20016;-49
2023/05/25 01:31:01;;;;;;;9.32;4.93;;;8.50;99.90;;;;;;6213672;23;20013;-49
2023/05/25 01:33:28;;;;;;;12.07;5.63;;;8.50;99.90;;;;;;6213810;23;20032;-48
2023/05/25 01:35:54;;;;;;;13.88;5.80;;;8.40;99.90;;;;;;6212002;23;20039;-49
2023/05/25 01:38:20;;;;;;;12.20;5.03;;;8.40;99.90;;;;;;6210936;23;20012;-47
2023/05/25 01:40:45;;;;;;;12.25;5.20;;;8.40;99.90;;;;;;6209984;23;20016;-47
2023/05/25 01:43:11;;;;;;;12.55;5.35;;;8.30;99.90;;;;;;6213017;23;20017;-48
2023/05/25 01:45:37;;;;;;;14.13;5.55;;;8.30;99.90;;;;;;6213511;23;20104;-49
2023/05/25 01:48:20;;;;;;;9.63;5.28;;;8.20;99.90;;;;;;6186481;23;20092;-50
2023/05/25 01:50:58;;;;;;;10.02;5.07;;;8.20;99.90;;;;;;6213590;23;20441;-48
2023/05/25 01:53:35;;;;;;;13.57;5.68;;;8.20;99.90;;;;;;6213316;23;20214;-48
2023/05/25 01:56:10;;;;;;;12.18;5.57;;;8.20;99.90;;;;;;6209578;23;20013;-49
2023/05/25 01:58:44;;;;;;;11.50;6.15;;;8.20;99.90;;;;;;6209137;23;20016;-48
2023/05/25 02:01:13;;;;;;;12.50;6.15;;;8.20;99.90;;;;;;6213000;23;20087;-48
2023/05/25 02:03:43;;;;;;;13.15;5.82;;;8.20;99.90;;;;;;6213232;23;20337;-50
2023/05/25 02:06:09;;;;;;;14.90;6.25;;;8.20;99.90;;;;;;6213597;23;20024;-49
2023/05/25 02:08:35;;;;;;;13.60;6.45;;;8.30;99.90;;;;;;6183768;23;20329;-48
2023/05/25 02:11:01;;;;;;;14.02;6.00;;;8.30;99.90;;;;;;6182455;23;20055;-48
2023/05/25 02:13:26;;;;;;;16.20;6.53;;;8.20;99.90;;;;;;6184897;23;20398;-48
2023/05/25 02:15:52;;;;;;;14.68;7.03;;;8.20;99.90;;;;;;6188043;23;20153;-49
2023/05/25 02:18:18;;;;;;;14.80;7.28;;;8.30;99.90;;;;;;6213718;23;20016;-50
2023/05/25 02:20:44;;;;;;;20.65;7.43;;;8.30;99.90;;;;;;6213605;23;20116;-52
2023/05/25 02:23:10;;;;;;;16.00;7.10;;;8.20;99.90;;;;;;6213124;23;20053;-49
2023/05/25 02:25:35;;;;;;;14.18;6.55;;;8.20;99.90;;;;;;6186385;23;20044;-49
2023/05/25 02:28:03;;;;;;;13.95;6.65;;;8.20;99.90;;;;;;6213641;23;20012;-52
2023/05/25 02:30:28;;;;;;;15.33;6.60;;;8.10;99.90;;;;;;6213364;23;20051;-48
2023/05/25 02:32:55;;;;;;;13.38;6.80;;;8.10;99.90;;;;;;6211051;23;20264;-50
2023/05/25 02:35:21;;;;;;;16.40;7.00;;;8.00;99.90;;;;;;6212994;23;20051;-50
2023/05/25 02:37:46;;;;;;;13.77;7.43;;;8.00;99.90;;;;;;6213486;23;20083;-48
2023/05/25 02:40:13;;;;;;;19.85;8.32;;;8.00;99.90;;;;;;6212727;23;20020;-47
2023/05/25 02:42:39;;;;;;;16.25;8.02;;;8.00;99.90;;;;;;6212522;23;20059;-48
2023/05/25 02:45:09;;;;;;;15.85;8.10;;;8.00;99.90;;;;;;6213196;23;20017;-47
2023/05/25 02:47:35;;;;;;;18.00;7.82;;;8.10;99.90;;;;;;6213116;23;20425;-49
2023/05/25 02:50:00;;;;;;;16.60;7.43;;;8.00;99.90;;;;;;6212935;23;20115;-48
2023/05/25 02:52:26;;;;;;;17.27;8.15;;;8.00;99.90;;;;;;6213086;23;20012;-47
2023/05/25 02:54:52;;;;;;;13.80;7.25;;;8.10;99.90;;;;;;6213165;23;20008;-48
2023/05/25 02:57:17;;;;;;;16.40;7.60;;;8.00;99.90;;;;;;6213210;23;20184;-47
2023/05/25 02:59:43;;;;;;;15.38;7.72;;;8.00;99.90;;;;;;6212920;23;20466;-49
2023/05/25 03:02:08;;;;;;;15.38;7.05;;;7.90;99.90;;;;;;6213108;23;20017;-48
2023/05/25 03:04:36;;;;;;;13.98;7.10;;;7.90;99.90;;;;;;6213159;23;20048;-47
2023/05/25 03:07:02;;;;;;;17.63;8.30;;;7.80;99.90;;;;;;6212800;23;20023;-51
2023/05/25 03:09:28;;;;;;;17.58;8.02;;;7.90;99.90;;;;;;6213107;23;20436;-47
2023/05/25 03:11:53;;;;;;;15.35;8.27;;;7.90;99.90;;;;;;6212605;23;20013;-47
2023/05/25 03:14:19;;;;;;;17.95;8.70;;;7.80;99.90;;;;;;6186568;23;20056;-48
2023/05/25 03:16:45;;;;;;;16.23;9.40;;;7.90;99.90;;;;;;6185260;23;20041;-48
2023/05/25 03:19:11;;;;;;;19.85;9.48;;;7.90;99.90;;;;;;6211033;23;20421;-49
2023/05/25 03:21:37;;;;;;;21.02;9.75;;;7.90;99.90;;;;;;6213578;23;20082;-49
2023/05/25 03:24:03;;;;;;;15.65;8.55;;;7.90;99.90;;;;;;6212578;23;20082;-51
2023/05/25 03:26:29;;;;;;;14.88;9.05;;;7.90;99.90;;;;;;6213334;23;20477;-49
2023/05/25 03:28:55;;;;;;;15.77;9.18;;;7.90;99.90;;;;;;6212989;23;20087;-46
2023/05/25 03:31:21;;;;;;;19.38;9.20;;;8.00;99.90;;;;;;6212670;23;20098;-48
2023/05/25 03:33:47;;;;;;;19.40;9.32;;;8.00;99.90;;;;;;6212250;23;20021;-47
2023/05/25 03:36:16;;;;;;;17.45;10.52;;;8.00;99.90;;;;;;6213281;23;20091;-48
2023/05/25 03:38:42;;;;;;;17.25;10.02;;;8.00;99.90;;;;;;6213039;23;20035;-50
2023/05/25 03:41:08;;;;;;;21.70;10.38;;;8.00;99.90;;;;;;6210939;23;20031;-47
2023/05/25 03:43:33;;;;;;;16.92;10.20;;;8.00;99.90;;;;;;6214133;23;20286;-51
2023/05/25 03:45:59;;;;;;;24.67;11.25;;;8.00;99.90;;;;;;6214752;23;20020;-50
2023/05/25 03:48:24;;;;;;;18.88;9.98;;;8.00;99.90;;;;;;6214861;23;20513;-47
2023/05/25 03:50:50;;;;;;;18.20;11.07;;;8.00;99.90;;;;;;6212580;23;20013;-48
2023/05/25 03:53:16;;;;;;;16.15;10.02;;;8.00;99.90;;;;;;6212736;23;20347;-50
2023/05/25 03:55:42;;;;;;;18.42;10.27;;;8.00;99.90;;;;;;6211919;23;20404;-49
2023/05/25 03:58:08;;;;;;;19.92;10.30;;;8.00;99.90;;;;;;6215884;23;20013;-48
2023/05/25 04:00:35;;;;;;;23.80;10.48;;;8.00;99.90;;;;;;6214850;23;20028;-48
2023/05/25 04:03:01;;;;;;;14.95;9.30;;;8.00;99.90;;;;;;6214168;23;20086;-50
2023/05/25 04:05:26;;;;;;;13.32;8.98;;;8.00;99.90;;;;;;6211057;23;20091;-48
2023/05/25 04:07:52;;;;;;;12.82;8.88;;;8.10;99.90;;;;;;6213919;23;20020;-48
2023/05/25 04:10:18;;;;;;;19.08;9.32;;;8.20;99.90;;;;;;6214626;23;20016;-48
2023/05/25 04:12:43;;;;;;;14.93;9.07;;;8.20;99.90;;;;;;6214861;23;20059;-48
2023/05/25 04:15:11;;;;;;;13.80;8.50;;;8.30;99.90;;;;;;6214140;23;20392;-48
2023/05/25 04:17:36;;;;;;;15.57;9.85;;;8.40;99.90;;;;;;6214825;23;20017;-48
2023/05/25 04:20:03;;;;;;;17.92;9.68;;;8.50;99.90;;;;;;6214432;23;20402;-48
2023/05/25 04:22:29;;;;;;;18.02;9.68;;;8.60;99.90;;;;;;6216058;23;20337;-48
2023/05/25 04:24:55;;;;;;;18.23;9.98;;;8.70;99.90;;;;;;6213491;23;20021;-51
2023/05/25 04:27:21;;;;;;;19.95;10.90;;;8.80;99.90;;;;;;6213355;23;20008;-47
2023/05/25 04:29:49;;;;;;;14.45;9.77;;;8.90;99.90;;;;;;6214207;23;20043;-49
2023/05/25 04:32:16;;;;;;;20.80;10.75;;;9.00;99.90;;;;;;6213740;23;20016;-49
2023/05/25 04:34:43;;;;;;;19.00;11.30;;;9.20;99.90;;;;;;6214479;23;20020;-48
2023/05/25 04:37:09;;;;;;;18.73;11.13;;;9.30;99.90;;;;;;6214801;23;20024;-48
2023/05/25 04:39:35;;;;;;;21.23;11.02;;;9.50;99.90;;;;;;6186376;23;20017;-49
2023/05/25 04:42:03;;;;;;;14.65;9.55;;;9.80;99.90;;;;;;6213769;23;20310;-48
2023/05/25 04:44:30;;;;;;;16.42;9.52;;;10.20;99.90;;;;;;6214175;23;20020;-49
2023/05/25 04:46:56;;;;;;;16.60;9.37;;;10.30;99.90;;;;;;6213865;23;20111;-48
2023/05/25 04:49:22;;;;;;;15.93;8.60;;;10.80;99.90;;;;;;6213960;23;20088;-49
2023/05/25 04:51:47;;;;;;;15.75;8.68;;;11.50;99.90;;;;;;6214289;23;20013;-48
2023/05/25 04:54:13;;;;;;;12.20;8.68;;;12.80;99.90;;;;;;6214309;23;20012;-49
2023/05/25 04:56:39;;;;;;;13.32;8.00;;;13.00;99.90;;;;;;6212820;23;20158;-50
2023/05/25 04:59:05;;;;;;;14.88;7.95;;;13.80;99.90;;;;;;6210556;23;20139;-49
2023/05/25 05:01:33;;;;;;;13.15;7.18;;;14.30;99.90;;;;;;6210972;23;20016;-53
2023/05/25 05:03:58;;;;;;;;;;;14.70;99.90;;;;;;6211378;23;20017;-50
2023/05/25 05:06:24;;;;;;;11.88;6.85;;;15.20;99.90;;;;;;6209554;23;20401;-49
2023/05/25 05:08:50;;;;;;;14.77;6.43;;;15.70;99.90;;;;;;6207447;23;20079;-48
2023/05/25 05:11:16;;;;;;;15.40;7.28;;;16.00;99.90;;;;;;6181496;23;20021;-50
2023/05/25 05:13:42;;;;;;;13.80;5.97;;;16.40;99.90;;;;;;6159023;23;20033;-48
2023/05/25 05:16:07;;;;;;;11.75;6.28;;;16.50;99.90;;;;;;6210443;23;20021;-49
2023/05/25 05:18:33;;;;;;;10.43;6.55;;;;;;;;;;6210486;23;20012;-49
2023/05/25 05:20:59;;;;;;;16.10;6.60;;;17.00;99.90;;;;;;6210000;23;20028;-50
2023/05/25 05:23:24;;;;;;;11.38;5.85;;;17.40;99.90;;;;;;6210704;23;20444;-49
2023/05/25 05:25:50;;;;;;;10.00;5.85;;;17.40;99.90;;;;;;6211588;23;20096;-49
2023/05/25 05:28:15;;;;;;;12.25;6.00;;;17.50;99.90;;;;;;6209874;23;20023;-50
2023/05/25 05:30:42;;;;;;;11.63;6.05;;;18.00;99.90;;;;;;6208281;23;20024;-49
2023/05/25 05:33:08;;;;;;;9.52;5.65;;;17.70;99.90;;;;;;6212534;23;20084;-49
2023/05/25 05:35:34;;;;;;;10.05;5.57;;;18.10;99.90;;;;;;6213688;23;20040;-51
2023/05/25 05:38:00;;;;;;;11.40;5.53;;;18.20;99.90;;;;;;6213765;23;20009;-50
2023/05/25 05:40:25;;;;;;;14.25;6.10;;;18.30;99.90;;;;;;6212840;23;20031;-49
2023/05/25 05:42:51;;;;;;;13.13;5.43;;;18.70;99.90;;;;;;6213722;23;20016;-48
2023/05/25 05:45:16;;;;;;;8.15;4.88;;;19.20;99.90;;;;;;6213638;23;20099;-49
2023/05/25 05:47:42;;;;;;;11.95;5.53;;;19.30;99.90;;;;;;6214015;23;20009;-50
2023/05/25 05:50:08;;;;;;;11.77;5.10;;;19.80;99.90;;;;;;6213454;23;20154;-51
2023/05/25 05:52:33;;;;;;;12.10;5.70;;;19.60;99.90;;;;;;6186529;23;20016;-48
2023/05/25 05:54:59;;;;;;;10.48;5.03;;;19.60;99.90;;;;;;6213215;23;20088;-49
2023/05/25 05:57:25;;;;;;;11.00;5.60;;;19.80;99.90;;;;;;6212830;23;20154;-48
2023/05/25 05:59:50;;;;;;;11.18;5.72;;;19.50;99.90;;;;;;6211592;23;20440;-48
2023/05/25 06:02:16;;;;;;;11.40;5.75;;;19.60;99.90;;;;;;6211322;23;20522;-49
2023/05/25 06:04:42;;;;;;;11.00;5.10;;;20.40;99.90;;;;;;6211355;23;20051;-49
2023/05/25 06:07:07;;;;;;;12.25;5.53;;;20.80;99.90;;;;;;6212197;23;20044;-50
2023/05/25 06:09:33;;;;;;;9.07;4.93;;;20.30;99.90;;;;;;6213335;23;20012;-52
2023/05/25 06:11:58;;;;;;;14.40;5.97;;;20.30;99.90;;;;;;6211433;23;20099;-50
2023/05/25 06:14:24;;;;;;;8.43;4.55;;;20.10;99.90;;;;;;6186070;23;20016;-49
2023/05/25 06:16:49;;;;;;;12.90;5.28;;;20.40;99.90;;;;;;6213573;23;20154;-49
2023/05/25 06:19:15;;;;;;;10.65;5.43;;;20.30;99.90;;;;;;6213347;23;20024;-50
2023/05/25 06:21:41;;;;;;;9.63;5.05;;;20.70;99.90;;;;;;6213659;23;20105;-49
2023/05/25 06:24:06;;;;;;;11.35;4.95;;;20.30;99.90;;;;;;6212617;23;20008;-49
2023/05/25 06:26:32;;;;;;;10.82;4.53;;;19.30;99.90;;;;;;6213529;23;20083;-52
2023/05/25 06:28:58;;;;;;;12.80;5.40;;;18.80;99.90;;;;;;6213095;23;20452;-48
2023/05/25 06:31:23;;;;;;;11.82;5.13;;;18.60;99.90;;;;;;6211889;23;20024;-49
2023/05/25 06:33:49;;;;;;;8.90;4.70;;;18.60;99.90;;;;;;6210848;23;20017;-47
2023/05/25 06:36:14;;;;;;;9.32;4.45;;;18.70;99.90;;;;;;6210806;23;20013;-47
2023/05/25 06:38:40;;;;;;;13.40;5.18;;;18.60;99.90;;;;;;6212690;23;20104;-47
2023/05/25 06:41:08;;;;;;;12.93;4.85;;;19.40;99.90;;;;;;6212470;23;20021;-47
2023/05/25 06:43:33;;;;;;;10.48;5.47;;;19.50;99.90;;;;;;6212947;23;20013;-46
2023/05/25 06:45:59;;;;;;;9.27;4.75;;;20.20;99.90;;;;;;6213304;23;20100;-47
2023/05/25 06:48:25;;;;;;;10.40;4.43;;;19.90;99.90;;;;;;6215411;23;20013;-48
2023/05/25 06:50:50;;;;;;;8.73;4.38;;;20.00;99.90;;;;;;6213560;23;20016;-49
2023/05/25 06:53:16;;;;;;;9.57;4.13;;;19.10;99.90;;;;;;6212913;23;20020;-47
2023/05/25 06:55:42;;;;;;;9.07;4.30;;;18.10;99.90;;;;;;6212675;23;20096;-50
2023/05/25 06:58:08;;;;;;;10.93;4.32;;;17.60;99.90;;;;;;6212833;23;20048;-48
2023/05/25 07:00:33;;;;;;;12.40;4.75;;;17.10;99.90;;;;;;6212573;23;20044;-48
2023/05/25 07:03:00;;;;;;;7.70;4.13;;;;;;;;;;6213138;23;20016;-48
2023/05/25 07:05:25;;;;;;;9.63;4.40;;;16.60;99.90;;;;;;6212596;23;20036;-47
2023/05/25 07:07:51;;;;;;;8.65;3.50;;;16.30;99.90;;;;;;6209930;23;20017;-48
2023/05/25 07:10:17;;;;;;;7.95;3.50;;;16.20;99.90;;;;;;6209833;23;20021;-49
2023/05/25 07:12:43;;;;;;;7.80;3.60;;;16.70;99.90;;;;;;6210317;23;20337;-50
2023/05/25 07:15:09;;;;;;;6.45;3.28;;;16.30;99.90;;;;;;6207680;23;20048;-48
2023/05/25 07:17:35;;;;;;;9.18;3.42;;;16.00;99.90;;;;;;6207729;23;20027;-51
2023/05/25 07:20:01;;;;;;;8.30;3.13;;;15.50;99.90;;;;;;6210553;23;20016;-50
2023/05/25 07:22:27;;;;;;;8.20;3.47;;;16.00;99.90;;;;;;6211460;23;20047;-49
2023/05/25 07:24:53;;;;;;;11.35;3.65;;;15.60;99.90;;;;;;6211672;23;20021;-48
2023/05/25 07:27:18;;;;;;;13.55;4.32;;;15.60;99.90;;;;;;6184938;23;20027;-48
2023/05/25 07:29:44;;;;;;;10.38;3.72;;;16.60;99.90;;;;;;6212781;23;20047;-48
2023/05/25 07:32:10;;;;;;;9.25;3.90;;;17.00;99.90;;;;;;6211418;23;20418;-49
2023/05/25 07:34:35;;;;;;;10.00;2.80;;;16.90;99.90;;;;;;6209914;23;20035;-48
2023/05/25 07:37:01;;;;;;;10.55;3.58;;;17.10;99.90;;;;;;6207185;23;20019;-49
2023/05/25 07:39:27;;;;;;;8.63;3.00;;;16.70;99.90;;;;;;6205130;23;20021;-50
2023/05/25 07:41:54;;;;;;;10.35;3.60;;;;;;;;;;6180400;23;20017;-49
2023/05/25 07:44:20;;;;;;;8.57;2.93;;;16.30;99.90;;;;;;6209888;23;20051;-49
2023/05/25 07:46:45;;;;;;;11.40;3.42;;;16.30;99.90;;;;;;6208494;23;20017;-49
2023/05/25 07:49:14;;;;;;;10.75;3.28;;;15.80;99.90;;;;;;6208699;23;20019;-54
2023/05/25 07:51:44;;;;;;;8.15;2.85;;;15.60;99.90;;;;;;6210155;23;20016;-48
2023/05/25 07:54:10;;;;;;;7.47;3.35;;;15.70;99.90;;;;;;6208502;23;20009;-48
2023/05/25 07:56:36;;;;;;;9.73;3.00;;;15.70;99.90;;;;;;6206019;23;20017;-47
2023/05/25 07:59:01;;;;;;;9.00;3.20;;;16.20;99.90;;;;;;6181463;23;20027;-47
2023/05/25 08:01:27;;;;;;;8.85;2.95;;;16.30;99.90;;;;;;6209144;23;20329;-49
2023/05/25 08:03:53;;;;;;;5.90;2.45;;;16.00;99.90;;;;;;6209247;23;20016;-48
2023/05/25 08:06:19;;;;;;;10.23;3.35;;;15.80;99.90;;;;;;6209215;23;20043;-47
2023/05/25 08:08:45;;;;;;;12.43;3.63;;;16.10;99.90;;;;;;6184918;23;20020;-46
2023/05/25 08:11:11;;;;;;;10.15;3.40;;;16.10;99.90;;;;;;6211628;23;20067;-49
2023/05/25 08:13:37;;;;;;;11.05;3.70;;;16.10;99.90;;;;;;6213007;23;20016;-48
2023/05/25 08:16:03;;;;;;;12.93;3.65;;;16.00;99.90;;;;;;6211257;23;20078;-49
2023/05/25 08:18:30;;;;;;;14.07;3.60;;;16.00;99.90;;;;;;6206962;23;20333;-47
2023/05/25 08:20:56;;;;;;;14.10;3.47;;;15.90;99.90;;;;;;6208249;23;20009;-47
2023/05/25 08:23:21;;;;;;;12.77;3.45;;;16.00;99.90;;;;;;6208056;23;20040;-47
2023/05/25 08:25:47;;;;;;;12.93;3.75;;;15.90;99.90;;;;;;6209071;23;20020;-49
2023/05/25 08:28:13;;;;;;;9.95;4.03;;;15.80;99.90;;;;;;6210386;23;20553;-49
2023/05/25 08:30:38;;;;;;;8.30;2.90;;;15.80;99.90;;;;;;6210323;23;20051;-48
2023/05/25 08:33:05;;;;;;;13.98;3.17;;;15.50;99.90;;;;;;6207603;23;20096;-48
2023/05/25 08:35:31;;;;;;;12.10;4.03;;;15.50;99.90;;;;;;6208956;23;20027;-49
2023/05/25 08:37:56;;;;;;;8.52;3.35;;;15.40;99.90;;;;;;6208645;23;20017;-49
2023/05/25 08:40:25;;;;;;;10.80;3.65;;;15.50;99.90;;;;;;6210522;23;20017;-49
2023/05/25 08:42:51;;;;;;;15.73;4.18;;;15.30;99.90;;;;;;6210399;23;20055;-49
2023/05/25 08:45:17;;;;;;;12.27;4.15;;;15.30;99.90;;;;;;6209990;23;20017;-47
2023/05/25 08:47:43;;;;;;;10.70;3.30;;;15.60;99.90;;;;;;6207094;23;20412;-48
2023/05/25 08:50:10;;;;;;;10.68;3.85;;;16.00;99.90;;;;;;6208708;23;20016;-47
2023/05/25 08:52:38;;;;;;;13.65;4.32;;;16.10;99.90;;;;;;6184107;23;20020;-47
2023/05/25 08:55:06;;;;;;;10.00;3.10;;;16.70;99.90;;;;;;6210927;23;20072;-49
2023/05/25 08:58:02;;;;;;;8.95;3.42;;;16.80;99.90;;;;;;6210719;23;20056;-48
2023/05/25 09:00:32;;;;;;;11.00;3.25;;;17.00;99.90;;;;;;6211338;23;20167;-49
2023/05/25 09:03:06;;;;;;;10.85;3.65;;;17.20;99.90;;;;;;6212241;23;20017;-51
2023/05/25 09:05:33;;;;;;;14.30;4.40;;;17.10;99.90;;;;;;6210243;23;20017;-49
2023/05/25 09:07:59;;;;;;;;;;;17.40;99.90;;;;;;6206768;23;20092;-50
2023/05/25 09:10:26;;;;;;;11.75;3.33;;;16.70;99.90;;;;;;6209571;23;19951;-49
2023/05/25 09:12:53;;;;;;;12.65;3.58;;;16.30;99.90;;;;;;6209378;23;20475;-50
2023/05/25 09:15:19;;;;;;;16.48;4.07;;;16.30;99.90;;;;;;6207889;23;20023;-50
2023/05/25 09:17:44;;;;;;;8.27;2.83;;;16.20;99.90;;;;;;6210469;23;20273;-48
2023/05/25 09:20:12;;;;;;;11.32;3.33;;;16.20;99.90;;;;;;6211485;23;20008;-52
2023/05/25 09:22:39;;;;;;;8.38;2.88;;;16.20;99.90;;;;;;6211178;23;20111;-51
2023/05/25 09:25:09;;;;;;;10.23;3.40;;;16.30;99.90;;;;;;6210726;23;20135;-50
2023/05/25 09:27:38;;;;;;;13.07;3.58;;;16.50;99.90;;;;;;6208685;23;20675;-51
2023/05/25 09:30:05;;;;;;;13.40;3.65;;;16.90;99.90;;;;;;6213428;23;20467;-50
2023/05/25 09:32:31;;;;;;;10.53;3.33;;;17.10;99.90;;;;;;6212349;23;20016;-48
2023/05/25 09:35:09;;;;;;;10.50;3.50;;;17.30;99.90;;;;;;6210501;23;20044;-50
2023/05/25 09:37:38;;;;;;;10.88;3.30;;;17.40;99.90;;;;;;6208472;23;20016;-51
2023/05/25 09:40:05;;;;;;;9.45;3.38;;;17.30;99.90;;;;;;6206407;23;20044;-47
2023/05/25 09:42:32;;;;;;;12.32;4.00;;;17.30;99.90;;;;;;6208228;23;20028;-49
2023/05/25 09:44:58;;;;;;;7.82;3.33;;;17.00;99.90;;;;;;6209640;23;20021;-48
2023/05/25 09:47:28;;;;;;;11.35;3.42;;;16.80;99.90;;;;;;6209517;23;20043;-48
2023/05/25 09:49:55;;;;;;;10.02;3.28;;;16.60;99.90;;;;;;6206958;23;20017;-48
2023/05/25 09:52:21;;;;;;;13.65;3.78;;;16.40;99.90;;;;;;6208863;23;20052;-48
2023/05/25 09:54:48;;;;;;;15.07;3.08;;;16.10;99.90;;;;;;6207679;23;20023;-48
2023/05/25 09:57:19;;;;;;;17.33;4.35;;;16.00;99.90;;;;;;6208809;23;20013;-49
2023/05/25 09:59:45;;;;;;;13.57;4.22;;;16.10;99.90;;;;;;6206770;23;20009;-49
2023/05/25 10:02:11;;;;;;;12.55;4.00;;;16.20;99.90;;;;;;6207538;23;20084;-50
2023/05/25 10:04:38;;;;;;;14.60;3.92;;;16.40;99.90;;;;;;6208309;23;20063;-50
2023/05/25 10:07:04;;;;;;;14.73;4.13;;;16.70;99.90;;;;;;6208990;23;20020;-48
2023/05/25 10:09:30;;;;;;;16.83;4.57;;;16.90;99.90;;;;;;6211135;23;20015;-50
2023/05/25 10:11:57;;;;;;;17.42;4.65;;;16.80;99.90;;;;;;6210213;23;20059;-51
2023/05/25 10:14:26;;;;;;;12.67;4.20;;;16.70;99.90;;;;;;6211749;23;20017;-51
2023/05/25 10:16:53;;;;;;;14.55;4.25;;;16.40;99.90;;;;;;6208607;23;20243;-50
2023/05/25 10:19:24;;;;;;;15.10;4.00;;;16.10;99.90;;;;;;6208442;23;20080;-53
2023/05/25 10:22:07;;;;;;;15.05;4.20;;;16.20;99.90;;;;;;6213088;23;20013;-51
2023/05/25 10:24:52;;;;;;;15.25;4.35;;;16.30;99.90;;;;;;6213018;23;20111;-50
2023/05/25 10:27:21;;;;;;;17.05;4.00;;;16.30;99.90;;;;;;6211147;23;20027;-49
2023/05/25 10:29:48;;;;;;;18.08;4.38;;;16.40;99.90;;;;;;6185538;23;20028;-49
2023/05/25 10:32:16;;;;;;;13.80;4.00;;;17.00;99.90;;;;;;6211761;23;20088;-49
2023/05/25 10:34:41;;;;;;;20.92;4.57;;;17.70;99.90;;;;;;6213558;23;20426;-50
2023/05/25 10:37:08;;;;;;;13.38;4.13;;;17.40;99.90;;;;;;6209298;23;20524;-50
2023/05/25 10:39:35;;;;;;;16.75;4.20;;;17.30;99.90;;;;;;6209083;23;20048;-49
2023/05/25 10:42:02;;;;;;;14.55;4.30;;;17.10;99.90;;;;;;6207233;23;20113;-50
2023/05/25 10:44:29;;;;;;;17.80;4.55;;;17.00;99.90;;;;;;6206196;23;20480;-50
2023/05/25 10:46:59;;;;;;;16.38;4.18;;;17.20;99.90;;;;;;6181317;23;20021;-50
2023/05/25 10:49:32;;;;;;;17.50;4.97;;;17.50;99.90;;;;;;6207948;23;20028;-53
2023/05/25 10:51:59;;;;;;;16.80;4.53;;;17.50;99.90;;;;;;6207649;23;20020;-49
2023/05/25 10:54:35;;;;;;;14.65;4.32;;;17.60;99.90;;;;;;6209349;23;20009;-52
2023/05/25 10:57:30;;;;;;;16.25;4.47;;;17.70;99.90;;;;;;6213129;23;20036;-49
2023/05/25 11:00:06;;;;;;;13.82;4.03;;;18.20;99.90;;;;;;6175930;23;20484;-51
2023/05/25 11:02:52;;;;;;;17.58;4.40;;;17.90;99.90;;;;;;6177383;23;20028;-51
2023/05/25 11:05:30;;;;;;;14.38;4.47;;;17.70;99.90;;;;;;6180808;23;20024;-50
2023/05/25 11:07:56;;;;;;;;;;;17.80;99.90;;;;;;6208991;23;20520;-50
2023/05/25 11:10:46;;;;;;;11.02;3.90;;;17.80;99.90;;;;;;6210721;23;19922;-49
2023/05/25 11:13:45;;;;;;;16.02;5.40;;;17.20;99.90;;;;;;6210822;23;20044;-50
2023/05/25 11:16:26;;;;;;;15.45;4.57;;;17.20;99.90;;;;;;6129814;23;20012;-50
2023/05/25 11:18:57;;;;;;;15.90;4.30;;;17.60;99.90;;;;;;6210881;23;20023;-49
2023/05/25 11:21:26;;;;;;;14.70;3.53;;;18.10;99.90;;;;;;6210544;23;20013;-52
2023/05/25 11:24:01;;;;;;;19.10;4.65;;;18.20;99.90;;;;;;6209054;23;20017;-49
2023/05/25 11:26:28;;;;;;;18.17;4.68;;;17.80;99.90;;;;;;6210096;23;20349;-51
2023/05/25 11:28:57;;;;;;;19.23;5.05;;;17.50;99.90;;;;;;6181887;23;20024;-49
2023/05/25 11:31:32;;;;;;;14.27;4.20;;;17.80;99.90;;;;;;6215556;23;20088;-47
2023/05/25 11:33:59;;;;;;;15.55;4.20;;;17.90;99.90;;;;;;6212460;23;20055;-48
2023/05/25 11:36:30;;;;;;;13.05;4.60;;;18.00;99.90;;;;;;6212002;23;20379;-48
2023/05/25 11:38:56;;;;;;;12.88;4.10;;;18.00;99.90;;;;;;6207990;23;20012;-48
2023/05/25 11:41:22;;;;;;;17.52;4.38;;;17.70;99.90;;;;;;6210186;23;20017;-46
2023/05/25 11:43:52;;;;;;;13.52;4.03;;;18.20;99.90;;;;;;6211597;23;20029;-50
2023/05/25 11:46:18;;;;;;;17.35;4.47;;;18.10;99.90;;;;;;6211170;23;20016;-53
2023/05/25 11:48:54;;;;;;;17.52;4.68;;;18.10;99.90;;;;;;6210620;23;20044;-48
2023/05/25 11:51:24;;;;;;;16.05;4.00;;;18.30;99.90;;;;;;6186024;23;20066;-49
2023/05/25 11:53:50;;;;;;;14.15;4.50;;;18.30;99.90;;;;;;6211645;23;20016;-46
2023/05/25 11:56:18;;;;;;;10.13;3.88;;;18.40;99.90;;;;;;6212302;23;20318;-48
2023/05/25 11:58:44;;;;;;;;;;;18.20;99.90;;;;;;6212409;23;20044;-50
2023/05/25 12:01:20;;;;;;;17.40;4.32;;;18.00;99.90;;;;;;6209645;23;19926;-48
2023/05/25 12:03:48;;;;;;;18.35;4.53;;;17.70;99.90;;;;;;6203597;23;20066;-49
2023/05/25 12:06:32;;;;;;;13.85;3.67;;;18.00;99.90;;;;;;6208758;23;20048;-53
2023/05/25 12:09:00;;;;;;;16.38;4.72;;;17.70;99.90;;;;;;6211022;23;20127;-49
2023/05/25 12:11:35;;;;;;;15.77;4.97;;;17.80;99.90;;;;;;6212137;23;20039;-51
2023/05/25 12:14:03;;;;;;;16.85;4.47;;;17.60;99.90;;;;;;6182643;23;20123;-51
2023/05/25 12:16:29;;;;;;;16.92;4.55;;;17.50;99.90;;;;;;6184612;23;20028;-49
2023/05/25 12:18:56;;;;;;;16.50;4.38;;;17.70;99.90;;;;;;6211533;23;20421;-54
2023/05/25 12:21:22;;;;;;;15.70;4.53;;;17.90;99.90;;;;;;6212483;23;20023;-53
2023/05/25 12:23:49;;;;;;;15.45;4.43;;;17.70;99.90;;;;;;6212277;23;20207;-49
2023/05/25 12:26:17;;;;;;;15.73;4.20;;;17.80;99.90;;;;;;6210254;23;20020;-51
2023/05/25 12:29:09;;;;;;;16.00;4.57;;;17.90;99.90;;;;;;6209475;23;20284;-52
2023/05/25 12:31:38;;;;;;;21.33;4.38;;;18.00;99.90;;;;;;6209777;23;20017;-50
2023/05/25 12:34:12;;;;;;;18.33;4.32;;;17.90;99.90;;;;;;6209231;23;20044;-50
2023/05/25 12:36:43;;;;;;;15.77;4.05;;;18.00;99.90;;;;;;6210930;23;20152;-50
2023/05/25 12:39:11;;;;;;;13.50;4.25;;;18.10;99.90;;;;;;6211651;23;20024;-50
2023/05/25 12:41:46;;;;;;;;;;;18.30;99.90;;;;;;6212133;23;20026;-53
2023/05/25 12:44:15;;;;;;;15.02;4.50;;;17.90;99.90;;;;;;6212078;23;19978;-50
2023/05/25 12:46:41;;;;;;;13.82;4.25;;;18.20;99.90;;;;;;6213627;23;20021;-50